Time;durP1;ratioP1;P1;durP2;ratioP2;P2;SDS_P1;SDS_P2;PMS_P1;PMS_P2;Temp;Humidity;BMP_temperature;BMP_pressure;BME280_temperature;BME280_humidity;BME280_pressure;Samples;Min_cycle;Max_cycle;Signal;HPM_P1;HPM_P2
2022/10/19 00:07:25;;;;;;;9.98;2.60;;;13.30;99.90;;;;;;20960070;28;20432;-61
2022/10/19 00:17:28;;;;;;;7.10;2.47;;;13.40;99.90;;;;;;20945718;28;20064;-61
2022/10/19 00:27:30;;;;;;;3.28;2.13;;;13.20;99.90;;;;;;20963385;28;20086;-61
2022/10/19 00:37:33;;;;;;;5.13;2.05;;;12.80;99.90;;;;;;20957981;28;20098;-61
2022/10/19 00:47:36;;;;;;;9.93;2.53;;;12.70;99.90;;;;;;21050476;28;20048;-62
2022/10/19 00:57:39;;;;;;;4.90;2.08;;;12.70;99.90;;;;;;21057896;28;20044;-61
2022/10/19 01:07:41;;;;;;;7.18;2.05;;;12.90;99.90;;;;;;21056028;28;20062;-62
2022/10/19 01:17:55;;;;;;;6.40;1.98;;;13.00;99.90;;;;;;20989726;28;20081;-62
2022/10/19 01:28:18;;;;;;;4.93;2.25;;;13.10;99.90;;;;;;21045788;28;20028;-62
2022/10/19 01:38:34;;;;;;;3.20;1.70;;;13.00;99.90;;;;;;20649776;28;20050;-62
2022/10/19 01:48:40;;;;;;;6.35;1.80;;;12.90;99.90;;;;;;20569653;28;20043;-65
2022/10/19 01:58:45;;;;;;;6.07;1.60;;;12.30;99.90;;;;;;20553319;28;20151;-61
2022/10/19 02:08:50;;;;;;;4.63;1.35;;;11.80;99.90;;;;;;20642883;28;20048;-61
2022/10/19 02:18:54;;;;;;;5.22;1.35;;;11.50;99.90;;;;;;20926571;28;20111;-61
2022/10/19 02:28:57;;;;;;;4.55;1.65;;;11.50;99.90;;;;;;20967456;28;20556;-61
2022/10/19 02:39:00;;;;;;;3.90;1.52;;;12.00;99.90;;;;;;20969082;28;20037;-61
2022/10/19 02:49:05;;;;;;;4.78;1.40;;;11.80;99.90;;;;;;21060606;28;20105;-61
2022/10/19 02:59:07;;;;;;;3.90;1.60;;;12.00;99.90;;;;;;21065647;28;20101;-61
2022/10/19 03:09:10;;;;;;;2.67;1.35;;;12.20;99.90;;;;;;21064834;28;20101;-61
2022/10/19 03:19:12;;;;;;;2.05;1.10;;;12.20;99.90;;;;;;21021106;28;20032;-61
2022/10/19 03:29:15;;;;;;;3.65;1.40;;;12.20;99.90;;;;;;21063346;28;20036;-61
2022/10/19 03:39:17;;;;;;;2.45;1.13;;;11.80;99.90;;;;;;21061088;28;20554;-61
2022/10/19 03:49:21;;;;;;;2.90;1.17;;;11.90;99.90;;;;;;21045196;28;20032;-61
2022/10/19 03:59:23;;;;;;;4.50;1.38;;;12.00;99.90;;;;;;21043835;28;20036;-61
2022/10/19 04:09:25;;;;;;;4.80;1.20;;;12.10;99.90;;;;;;21060049;28;20040;-64
2022/10/19 04:19:28;;;;;;;4.85;0.98;;;12.00;99.90;;;;;;21015770;28;20028;-61
2022/10/19 04:29:30;;;;;;;3.00;1.00;;;12.00;99.90;;;;;;21042098;28;20048;-61
2022/10/19 04:39:33;;;;;;;3.50;1.23;;;11.60;99.90;;;;;;21058580;28;20044;-61
2022/10/19 04:49:36;;;;;;;3.75;1.40;;;11.50;99.90;;;;;;21040499;28;20058;-61
2022/10/19 04:59:38;;;;;;;5.80;1.45;;;11.80;99.90;;;;;;21056434;28;20550;-62
2022/10/19 05:09:41;;;;;;;3.45;1.25;;;12.20;99.90;;;;;;21054361;28;20062;-61
2022/10/19 05:19:43;;;;;;;4.88;1.23;;;12.10;99.90;;;;;;21011136;28;20089;-61
2022/10/19 05:29:46;;;;;;;4.65;1.20;;;11.90;99.90;;;;;;21020056;28;20106;-62
2022/10/19 05:39:49;;;;;;;3.28;1.00;;;12.10;99.90;;;;;;20983773;28;20040;-61
2022/10/19 05:49:52;;;;;;;2.72;0.90;;;12.20;99.90;;;;;;20922034;28;20036;-62
2022/10/19 05:59:57;;;;;;;4.95;1.05;;;12.50;99.90;;;;;;20891522;28;20037;-62
2022/10/19 06:09:59;;;;;;;5.45;0.98;;;12.60;99.90;;;;;;20986201;28;20036;-62
2022/10/19 06:20:02;;;;;;;3.92;0.90;;;12.50;99.90;;;;;;21012175;28;20093;-62
2022/10/19 06:30:05;;;;;;;2.63;0.90;;;12.50;99.90;;;;;;21069037;28;20031;-61
2022/10/19 06:40:09;;;;;;;3.33;0.57;;;12.40;99.90;;;;;;21067039;28;20497;-62
2022/10/19 06:50:12;;;;;;;4.13;0.70;;;12.50;99.90;;;;;;21066072;28;20032;-62
2022/10/19 07:00:16;;;;;;;4.43;0.77;;;12.70;99.90;;;;;;21049303;28;20036;-62
2022/10/19 07:10:18;;;;;;;3.95;0.77;;;12.90;99.90;;;;;;21018272;28;20037;-62
2022/10/19 07:20:21;;;;;;;2.50;0.60;;;13.70;99.90;;;;;;20947924;28;20550;-62
2022/10/19 07:30:23;;;;;;;5.50;0.98;;;14.60;99.90;;;;;;21045724;28;20093;-66
2022/10/19 07:40:25;;;;;;;6.45;1.00;;;15.50;99.90;;;;;;21029863;28;20047;-62
2022/10/19 07:50:29;;;;;;;5.97;1.08;;;16.40;98.30;;;;;;21061885;28;20031;-62
2022/10/19 08:00:32;;;;;;;6.13;0.82;;;16.90;97.10;;;;;;20983806;28;20063;-65
2022/10/19 08:10:34;;;;;;;3.42;0.90;;;17.50;96.60;;;;;;21003412;28;20036;-64
2022/10/19 08:20:40;;;;;;;7.30;1.02;;;17.90;95.80;;;;;;20989078;28;20098;-63
2022/10/19 08:30:43;;;;;;;5.55;1.77;;;18.40;94.70;;;;;;21058657;28;20062;-64
2022/10/19 08:40:46;;;;;;;6.03;1.70;;;18.90;99.00;;;;;;21000802;28;20095;-63
2022/10/19 08:50:50;;;;;;;2.67;1.67;;;19.70;98.30;;;;;;20924320;28;20040;-65
2022/10/19 09:01:19;;;;;;;4.93;1.60;;;20.20;96.60;;;;;;20987912;28;20098;-64
2022/10/19 09:11:26;;;;;;;4.07;1.90;;;20.60;96.90;;;;;;21015774;28;20085;-63
2022/10/19 09:21:55;;;;;;;9.02;1.70;;;20.90;97.40;;;;;;20994434;28;20047;-62
2022/10/19 09:32:00;;;;;;;2.53;1.27;;;21.30;94.40;;;;;;21054167;28;20081;-65
2022/10/19 09:42:25;;;;;;;4.43;1.10;;;21.50;93.40;;;;;;21053521;28;20105;-63
2022/10/19 09:52:32;;;;;;;4.97;1.55;;;22.00;92.70;;;;;;21052429;28;20036;-63
2022/10/19 10:02:35;;;;;;;2.92;1.30;;;22.00;93.00;;;;;;21036827;28;20035;-65
2022/10/19 10:12:39;;;;;;;3.88;1.35;;;22.30;93.50;;;;;;21050861;28;20065;-65
2022/10/19 10:22:56;;;;;;;4.50;2.08;;;22.70;93.20;;;;;;20957224;28;20041;-63
2022/10/19 10:32:59;;;;;;;4.05;1.90;;;22.60;91.30;;;;;;20887219;28;20045;-63
2022/10/19 10:43:28;;;;;;;4.18;2.40;;;22.40;90.80;;;;;;20959685;28;20040;-64
2022/10/19 10:53:32;;;;;;;5.07;2.60;;;22.40;92.80;;;;;;21005453;28;20797;-63
2022/10/19 11:03:36;;;;;;;7.30;2.90;;;22.30;93.40;;;;;;21034650;28;20489;-63
2022/10/19 11:14:16;;;;;;;5.13;3.05;;;22.40;94.20;;;;;;21066075;28;20035;-63
2022/10/19 11:24:27;;;;;;;3.90;3.15;;;22.30;91.10;;;;;;20986222;28;20164;-63
2022/10/19 11:35:05;;;;;;;4.60;2.53;;;22.30;92.70;;;;;;21046700;28;20393;-63
2022/10/19 11:45:31;;;;;;;3.97;2.53;;;22.40;91.90;;;;;;21090955;28;20109;-64
2022/10/19 11:55:50;;;;;;;2.67;1.20;;;22.30;91.30;;;;;;21061980;28;20489;-64
2022/10/19 12:06:26;;;;;;;2.77;1.47;;;22.30;89.30;;;;;;21060592;28;20486;-64
2022/10/19 12:16:45;;;;;;;1.45;0.80;;;22.30;89.00;;;;;;21020494;28;20294;-64
2022/10/19 12:26:50;;;;;;;5.60;1.70;;;22.20;88.90;;;;;;21040880;28;20105;-64
2022/10/19 12:37:07;;;;;;;3.13;1.67;;;22.10;90.40;;;;;;21058103;28;20031;-64
2022/10/19 12:47:24;;;;;;;3.67;2.00;;;22.00;89.80;;;;;;20986590;28;20110;-65
2022/10/19 12:57:29;;;;;;;3.38;2.25;;;21.90;90.70;;;;;;20971957;28;20106;-64
2022/10/19 13:07:35;;;;;;;4.80;2.38;;;22.00;92.00;;;;;;20955141;28;20041;-64
2022/10/19 13:17:40;;;;;;;2.33;1.58;;;21.80;90.80;;;;;;20919535;28;20092;-67
2022/10/19 13:27:44;;;;;;;2.75;1.17;;;21.30;90.10;;;;;;20814675;28;20064;-68
2022/10/19 13:38:18;;;;;;;2.10;1.52;;;20.60;90.80;;;;;;20835953;28;20379;-65
2022/10/19 13:48:59;;;;;;;2.60;1.80;;;19.90;90.50;;;;;;20965986;28;20048;-64
2022/10/19 13:59:10;;;;;;;3.03;2.40;;;19.00;91.40;;;;;;20968528;28;20548;-64
2022/10/19 14:09:36;;;;;;;4.45;3.13;;;18.50;92.10;;;;;;20961196;28;20052;-64
2022/10/19 14:19:49;;;;;;;4.32;3.17;;;18.10;94.20;;;;;;20907862;28;20028;-66
2022/10/19 14:29:53;;;;;;;5.85;3.58;;;17.70;93.90;;;;;;21051433;28;20078;-64
2022/10/19 14:40:02;;;;;;;4.55;3.15;;;17.40;93.00;;;;;;20985100;28;20049;-63
2022/10/19 14:50:10;;;;;;;5.30;2.50;;;16.90;93.40;;;;;;20902561;28;20028;-63
2022/10/19 15:00:28;;;;;;;2.72;1.88;;;16.50;92.90;;;;;;21048882;28;20040;-66
2022/10/19 15:10:42;;;;;;;2.40;0.95;;;16.20;92.90;;;;;;21048953;28;20109;-65
2022/10/19 15:20:45;;;;;;;3.50;0.90;;;15.70;92.00;;;;;;20992303;28;20766;-63
2022/10/19 15:31:03;;;;;;;3.45;1.10;;;14.70;94.30;;;;;;20947366;28;20029;-63
2022/10/19 15:41:06;;;;;;;3.10;1.00;;;13.90;96.60;;;;;;21014538;28;20105;-63
2022/10/19 15:51:23;;;;;;;6.53;1.08;;;13.40;97.70;;;;;;21044478;28;20040;-65
2022/10/19 16:01:29;;;;;;;6.53;0.90;;;13.00;98.10;;;;;;21061646;28;20036;-65
2022/10/19 16:11:34;;;;;;;5.13;1.05;;;12.60;99.10;;;;;;21060240;28;20036;-63
2022/10/19 16:21:37;;;;;;;4.45;1.20;;;12.40;99.90;;;;;;21000023;28;20560;-66
2022/10/19 16:31:39;;;;;;;10.05;1.08;;;12.20;99.90;;;;;;21060221;28;20473;-63
2022/10/19 16:41:43;;;;;;;4.10;0.88;;;11.90;99.90;;;;;;21058285;28;20189;-64
2022/10/19 16:51:45;;;;;;;6.07;0.80;;;11.80;99.90;;;;;;21045377;28;20040;-63
2022/10/19 17:01:48;;;;;;;5.20;0.93;;;11.70;99.90;;;;;;20873850;28;20041;-63
2022/10/19 17:11:51;;;;;;;5.65;1.23;;;11.50;99.90;;;;;;20905417;28;20037;-62
2022/10/19 17:21:54;;;;;;;4.97;1.00;;;11.60;99.90;;;;;;20962950;28;20483;-62
2022/10/19 17:31:58;;;;;;;7.88;1.13;;;11.30;99.90;;;;;;20921262;28;20033;-62
2022/10/19 17:42:02;;;;;;;7.20;0.80;;;11.20;99.90;;;;;;20954618;28;20094;-62
2022/10/19 17:52:04;;;;;;;6.30;1.23;;;11.00;99.90;;;;;;20949466;28;20044;-51
2022/10/19 18:02:07;;;;;;;2.88;1.00;;;10.70;99.90;;;;;;20938650;28;20041;-49
2022/10/19 18:12:12;;;;;;;6.80;0.90;;;10.70;99.90;;;;;;20917114;28;20524;-52
2022/10/19 18:22:14;;;;;;;2.33;0.70;;;10.90;99.90;;;;;;20941207;28;20048;-55
2022/10/19 18:32:17;;;;;;;5.40;0.93;;;11.00;99.90;;;;;;20956541;28;20033;-53
2022/10/19 18:42:19;;;;;;;7.32;1.00;;;11.00;99.90;;;;;;20983335;28;20560;-59
2022/10/19 18:52:22;;;;;;;4.93;0.90;;;11.00;99.90;;;;;;21041772;28;20037;-56
2022/10/19 19:02:24;;;;;;;6.63;1.20;;;11.00;99.90;;;;;;21025072;28;20074;-51
2022/10/19 19:12:29;;;;;;;5.03;1.25;;;10.90;99.90;;;;;;21045127;28;20024;-51
2022/10/19 19:22:33;;;;;;;2.33;0.70;;;10.90;99.90;;;;;;21034037;28;20058;-50
2022/10/19 19:32:36;;;;;;;4.57;0.98;;;10.90;99.90;;;;;;21016313;28;20373;-48
2022/10/19 19:42:38;;;;;;;7.15;0.80;;;10.90;99.90;;;;;;21008455;28;20440;-58
2022/10/19 19:52:41;;;;;;;3.38;0.70;;;10.90;99.90;;;;;;20968187;28;20036;-49
2022/10/19 20:02:43;;;;;;;2.25;0.73;;;11.00;99.90;;;;;;20967123;28;20032;-58
2022/10/19 20:12:46;;;;;;;2.00;0.30;;;11.00;99.90;;;;;;20974577;28;20036;-56
2022/10/19 20:22:49;;;;;;;4.90;0.60;;;10.90;99.90;;;;;;20972712;28;20498;-49
2022/10/19 20:32:55;;;;;;;3.83;0.50;;;10.90;99.90;;;;;;20970727;28;20032;-60
2022/10/19 20:42:57;;;;;;;0.82;0.40;;;10.60;99.90;;;;;;20984671;28;20041;-66
2022/10/19 20:53:01;;;;;;;2.75;0.60;;;10.50;99.90;;;;;;21027522;28;20048;-60
2022/10/19 21:03:03;;;;;;;2.15;0.60;;;10.20;99.90;;;;;;21046687;28;20036;-61
2022/10/19 21:13:06;;;;;;;3.75;0.90;;;10.00;99.90;;;;;;21040534;28;20036;-66
2022/10/19 21:23:09;;;;;;;2.50;0.90;;;9.90;99.90;;;;;;21042404;28;20031;-61
2022/10/19 21:33:11;;;;;;;4.20;1.10;;;9.80;99.90;;;;;;21032066;28;20040;-61
2022/10/19 21:43:14;;;;;;;4.72;1.33;;;9.70;99.90;;;;;;21038297;28;20110;-61
2022/10/19 21:53:18;;;;;;;2.80;1.02;;;9.60;99.90;;;;;;21013176;28;20085;-61
2022/10/19 22:03:21;;;;;;;3.63;1.00;;;9.60;99.90;;;;;;21029207;28;20093;-61
2022/10/19 22:13:24;;;;;;;2.80;1.27;;;9.60;99.90;;;;;;21026351;28;20036;-61
2022/10/19 22:23:26;;;;;;;3.53;1.10;;;9.70;99.90;;;;;;21027427;28;20032;-61
2022/10/19 22:33:28;;;;;;;4.40;1.42;;;9.80;99.90;;;;;;21028070;28;20094;-61
2022/10/19 22:43:31;;;;;;;3.63;1.35;;;9.80;99.90;;;;;;20990026;28;20129;-66
2022/10/19 22:53:33;;;;;;;3.15;1.17;;;9.70;99.90;;;;;;20964700;28;20037;-66
2022/10/19 23:03:38;;;;;;;2.40;0.70;;;9.70;99.90;;;;;;20955724;28;20098;-61
2022/10/19 23:13:42;;;;;;;2.53;0.90;;;9.60;99.90;;;;;;20963721;28;20028;-61
2022/10/19 23:23:45;;;;;;;3.92;0.90;;;9.60;99.90;;;;;;20963382;28;20041;-66
2022/10/19 23:33:47;;;;;;;7.35;1.08;;;9.50;99.90;;;;;;20978707;28;20028;-61
2022/10/19 23:43:50;;;;;;;2.22;0.70;;;9.60;99.90;;;;;;20961162;28;20037;-66
2022/10/19 23:53:53;;;;;;;2.35;0.60;;;9.80;99.90;;;;;;20973829;28;20036;-66
